Time;durP1;ratioP1;P1;durP2;ratioP2;P2;SDS_P1;SDS_P2;PMS_P1;PMS_P2;Temp;Humidity;BMP_temperature;BMP_pressure;BME280_temperature;BME280_humidity;BME280_pressure;Samples;Min_cycle;Max_cycle;Signal;HPM_P1;HPM_P2
2022/04/14 00:37:39;;;;;;;;;;;;;;;13.28;40.63;97957.91;12677049;23;19921;-83
2022/04/14 00:43:00;;;;;;;;;;;;;;;13.21;41.04;97964.47;12651958;23;19969;-88
2022/04/14 00:48:21;;;;;;;;;;;;;;;13.08;41.24;97959.47;12669145;23;19928;-88
2022/04/14 00:53:41;;;;;;;;;;;;;;;12.97;41.79;97951.78;12670084;23;20308;-87
2022/04/14 00:59:02;;;;;;;;;;;;;;;12.84;41.95;97953.84;12640562;23;20427;-87
2022/04/14 01:04:24;;;;;;;;;;;;;;;12.76;42.67;97958.94;12681270;23;19940;-87
2022/04/14 01:09:45;;;;;;;;;;;;;;;12.65;42.29;97954.03;12668041;23;19936;-88
2022/04/14 01:15:12;;;;;;;;;;;;;;;12.61;42.49;97959.38;12629963;23;19921;-86
2022/04/14 01:20:32;;;;;;;;;;;;;;;12.53;42.61;97956.06;12627748;23;19940;-88
2022/04/14 01:25:53;;;;;;;;;;;;;;;12.45;42.77;97964.69;12667213;23;19921;-86
2022/04/14 01:31:16;;;;;;;;;;;;;;;12.30;42.95;97949.06;12667088;23;19917;-88
2022/04/14 01:36:37;;;;;;;;;;;;;;;12.26;42.98;97953.66;12666697;23;19928;-87
2022/04/14 01:41:57;;;;;;;;;;;;;;;12.23;43.71;97958.38;12628706;23;19964;-88
2022/04/14 01:47:18;;;;;;;;;;;;;;;12.15;43.73;97952.25;12665909;23;19921;-87
2022/04/14 01:52:40;;;;;;;;;;;;;;;11.98;44.23;97960.97;12645270;23;19922;-88
2022/04/14 01:58:01;;;;;;;;;;;;;;;11.91;43.97;97951.44;12666444;23;19965;-86
2022/04/14 02:03:22;;;;;;;;;;;;;;;11.83;44.62;97941.78;12662434;23;19928;-85
2022/04/14 02:08:44;;;;;;;;;;;;;;;11.78;44.28;97937.22;12665999;23;19925;-85
2022/04/14 02:14:04;;;;;;;;;;;;;;;11.68;44.93;97940.81;12645157;23;19949;-87
2022/04/14 02:19:27;;;;;;;;;;;;;;;11.64;44.98;97948.94;12644240;23;19961;-87
2022/04/14 02:24:48;;;;;;;;;;;;;;;11.58;44.92;97950.56;12665458;23;19968;-89
2022/04/14 02:30:10;;;;;;;;;;;;;;;11.50;45.28;97944.47;12665545;23;19921;-87
2022/04/14 02:35:30;;;;;;;;;;;;;;;11.44;45.46;97939.19;12664979;23;19928;-89
2022/04/14 02:40:51;;;;;;;;;;;;;;;11.37;45.66;97937.31;12643617;23;19941;-87
2022/04/14 02:46:12;;;;;;;;;;;;;;;11.25;45.91;97940.03;12643033;23;20297;-88
2022/04/14 02:51:33;;;;;;;;;;;;;;;11.18;45.91;97933.28;12662065;23;19941;-89
2022/04/14 02:56:54;;;;;;;;;;;;;;;11.13;46.14;97934.34;12642356;23;19951;-87
2022/04/14 03:02:15;;;;;;;;;;;;;;;11.11;46.65;97931.41;12641783;23;19921;-88
2022/04/14 03:07:36;;;;;;;;;;;;;;;11.07;46.75;97933.91;12641853;23;19921;-86
2022/04/14 03:12:57;;;;;;;;;;;;;;;11.04;46.49;97937.19;12620910;23;19990;-87
2022/04/14 03:18:19;;;;;;;;;;;;;;;10.99;46.68;97941.75;12642651;23;19921;-88
2022/04/14 03:23:40;;;;;;;;;;;;;;;10.94;46.72;97940.00;12641488;23;19927;-87
2022/04/14 03:29:01;;;;;;;;;;;;;;;10.92;46.30;97944.72;12611949;23;19940;-87
2022/04/14 03:34:22;;;;;;;;;;;;;;;10.77;46.81;97937.41;12661746;23;19927;-86
2022/04/14 03:39:43;;;;;;;;;;;;;;;10.70;47.13;97932.72;12633092;23;19921;-87
2022/04/14 03:45:04;;;;;;;;;;;;;;;10.66;47.45;97924.06;12642699;23;19917;-88
2022/04/14 03:50:25;;;;;;;;;;;;;;;10.56;47.15;97916.47;12622207;23;19921;-86
2022/04/14 03:55:46;;;;;;;;;;;;;;;10.55;47.57;97917.78;12664531;23;19928;-86
2022/04/14 04:01:07;;;;;;;;;;;;;;;10.47;47.48;97931.16;12667361;23;19941;-88
2022/04/14 04:06:28;;;;;;;;;;;;;;;10.40;47.16;97937.63;12650927;23;19929;-87
2022/04/14 04:11:50;;;;;;;;;;;;;;;10.32;47.42;97931.47;12646823;23;19928;-84
2022/04/14 04:17:10;;;;;;;;;;;;;;;10.36;47.64;97928.25;12667780;23;19928;-87
2022/04/14 04:22:33;;;;;;;;;;;;;;;10.40;47.35;97936.91;12636371;23;19941;-88
2022/04/14 04:27:54;;;;;;;;;;;;;;;10.43;47.34;97942.06;12647483;23;20316;-85
2022/04/14 04:33:15;;;;;;;;;;;;;;;10.41;47.86;97941.88;12626256;23;19928;-87
2022/04/14 04:38:36;;;;;;;;;;;;;;;10.46;48.04;97940.88;12626379;23;19921;-85
2022/04/14 04:43:57;;;;;;;;;;;;;;;10.55;47.38;97944.97;12647422;23;19933;-87
2022/04/14 04:49:18;;;;;;;;;;;;;;;10.63;47.94;97953.19;12645959;23;19922;-87
2022/04/14 04:54:38;;;;;;;;;;;;;;;10.76;47.64;97958.28;12664489;23;19961;-80
2022/04/14 04:59:59;;;;;;;;;;;;;;;10.97;47.70;97958.38;12644019;23;19921;-88
2022/04/14 05:05:22;;;;;;;;;;;;;;;11.32;47.61;97955.16;12650881;23;19921;-85
2022/04/14 05:10:43;;;;;;;;;;;;;;;11.72;47.27;97957.84;12641871;23;19921;-84
2022/04/14 05:16:06;;;;;;;;;;;;;;;12.41;46.87;97958.81;12683682;23;19921;-87
2022/04/14 05:21:26;;;;;;;;;;;;;;;13.34;46.40;97965.97;12665481;23;19937;-85
2022/04/14 05:32:52;;;;;;;;;;;;;;;17.41;42.84;97973.91;12682127;23;19925;-89
2022/04/14 05:41:12;;;;;;;17.77;9.57;;;;;;;27.13;33.25;97961.47;10704149;27;20351;-79
2022/04/14 05:46:35;;;;;;;18.08;8.80;;;;;;;31.24;26.65;97958.25;10631295;27;20050;-78
2022/04/14 05:51:56;;;;;;;17.67;9.48;;;;;;;34.11;21.99;97970.78;10645529;27;20043;-78
2022/04/14 05:57:18;;;;;;;16.95;9.13;;;;;;;36.33;19.93;97978.56;10616225;27;20043;-80
2022/04/14 06:02:40;;;;;;;13.93;8.70;;;;;;;37.56;16.98;97978.75;10611206;27;20134;-80
2022/04/14 06:08:00;;;;;;;;;;;;;;;38.12;12.09;97968.63;10573867;28;20469;-80
2022/04/14 06:13:21;;;;;;;12.90;8.82;;;;;;;38.51;12.33;97967.78;10547364;28;20285;-82
2022/04/14 06:18:42;;;;;;;;;;;;;;;39.55;9.79;97969.88;10531570;28;20044;-82
2022/04/14 06:24:02;;;;;;;;;;;;;;;40.82;9.33;97976.28;10545256;28;20329;-82
2022/04/14 06:29:27;;;;;;;15.60;8.65;;;;;;;41.36;9.76;97961.06;10545821;28;19927;-79
2022/04/14 06:34:47;;;;;;;13.80;8.07;;;;;;;42.27;9.39;97967.09;10516464;28;20050;-78
2022/04/14 06:40:09;;;;;;;11.70;8.55;;;;;;;42.85;8.52;97974.00;10513337;28;20048;-78
2022/04/14 06:45:50;;;;;;;8.95;8.02;;;;;;;44.25;7.66;97979.31;10535720;28;20044;-81
2022/04/14 06:51:11;;;;;;;10.85;7.57;;;;;;;45.08;6.89;97984.84;10509832;28;20044;-81
2022/04/14 06:56:32;;;;;;;11.45;8.10;;;;;;;45.04;6.43;97982.16;10488347;28;20046;-81
2022/04/14 07:01:54;;;;;;;9.68;6.95;;;;;;;45.45;6.62;97982.28;10501397;28;20044;-82
2022/04/14 07:07:15;;;;;;;10.68;7.25;;;;;;;45.79;6.04;97978.47;10487609;28;20043;-82
2022/04/14 07:12:37;;;;;;;12.63;6.63;;;;;;;45.81;5.33;97964.28;10515263;28;20421;-81
2022/04/14 07:17:58;;;;;;;8.63;6.50;;;;;;;47.01;5.54;97964.25;10514942;28;20040;-82
2022/04/14 07:23:19;;;;;;;8.77;6.47;;;;;;;47.20;5.11;97957.63;10500763;28;20052;-81
2022/04/14 07:28:40;;;;;;;9.27;6.15;;;;;;;48.01;4.66;97952.72;10500424;28;20056;-81
2022/04/14 07:34:02;;;;;;;9.52;6.57;;;;;;;48.21;4.63;97951.03;10500797;28;20371;-82
2022/04/14 07:39:23;;;;;;;8.77;5.65;;;;;;;47.83;4.42;97949.66;10500404;28;20048;-80
2022/04/14 07:44:45;;;;;;;10.18;6.47;;;;;;;48.46;4.37;97946.78;10486578;28;20055;-81
2022/04/14 07:50:13;;;;;;;7.68;5.75;;;;;;;49.35;4.24;97953.28;10485855;28;20048;-81
2022/04/14 07:55:39;;;;;;;8.90;6.13;;;;;;;50.42;3.32;97951.19;10515072;28;20040;-81
2022/04/14 08:01:09;;;;;;;7.40;5.97;;;;;;;50.49;3.47;97949.03;10527529;28;20071;-82
2022/04/14 08:06:31;;;;;;;9.88;4.90;;;;;;;49.43;3.56;97943.69;10485171;28;20055;-81
2022/04/14 08:11:53;;;;;;;8.68;5.75;;;;;;;49.09;3.22;97946.69;10513160;28;20386;-82
2022/04/14 08:17:16;;;;;;;7.15;5.28;;;;;;;50.29;3.14;97945.66;10512617;28;20497;-82
2022/04/14 08:22:46;;;;;;;10.15;5.53;;;;;;;50.95;3.12;97949.22;10526365;28;20048;-82
2022/04/14 08:28:07;;;;;;;11.20;5.65;;;;;;;51.41;2.73;97941.13;10526592;28;20055;-81
2022/04/14 08:33:41;;;;;;;6.43;4.53;;;;;;;52.06;2.63;97948.97;10489213;28;20458;-80
2022/04/14 08:39:05;;;;;;;8.60;5.50;;;;;;;51.05;2.88;97957.16;10498860;28;20059;-82
2022/04/14 08:44:29;;;;;;;8.18;5.22;;;;;;;51.95;2.50;97949.28;10497852;28;20044;-81
2022/04/14 08:49:50;;;;;;;9.00;5.60;;;;;;;52.12;2.17;97950.66;10497754;28;20506;-83
2022/04/14 08:55:14;;;;;;;7.95;5.80;;;;;;;52.06;2.28;97943.00;10497694;28;20470;-81
2022/04/14 09:00:36;;;;;;;7.07;5.70;;;;;;;51.36;2.04;97951.31;10510270;28;20073;-81
2022/04/14 09:06:01;;;;;;;10.23;5.25;;;;;;;52.49;2.35;97947.69;10511782;28;20051;-82
2022/04/14 09:11:23;;;;;;;8.02;5.32;;;;;;;53.37;1.87;97952.00;10496281;28;20182;-81
2022/04/14 09:16:51;;;;;;;9.43;5.13;;;;;;;53.83;1.19;97939.75;10497023;28;20036;-81
2022/04/14 09:22:13;;;;;;;6.85;6.00;;;;;;;52.74;1.77;97928.72;10496644;28;20050;-81
2022/04/14 09:27:47;;;;;;;8.48;5.90;;;;;;;52.47;1.83;97924.78;10497233;28;20040;-82
2022/04/14 09:33:16;;;;;;;11.02;5.28;;;;;;;52.68;2.16;97923.38;10525525;28;20048;-82
2022/04/14 09:38:54;;;;;;;6.70;5.68;;;;;;;53.36;1.92;97923.78;10499988;28;20508;-84
2022/04/14 09:44:15;;;;;;;9.23;6.00;;;;;;;53.75;1.72;97928.69;10523877;28;20536;-82
2022/04/14 09:49:40;;;;;;;8.27;6.28;;;;;;;53.50;1.90;97924.63;10509816;28;20040;-83
2022/04/14 09:55:08;;;;;;;11.38;6.97;;;;;;;51.99;2.29;97921.38;10509736;28;20047;-83
2022/04/14 10:00:40;;;;;;;9.98;6.20;;;;;;;53.25;2.07;97914.53;10496067;28;20096;-83
2022/04/14 10:06:37;;;;;;;7.00;6.27;;;;;;;53.87;1.81;97915.47;10509724;28;20052;-81
2022/04/14 10:12:29;;;;;;;6.80;6.10;;;;;;;54.79;1.17;97911.44;10510242;28;20148;-83
2022/04/14 10:17:51;;;;;;;9.38;6.55;;;;;;;54.94;1.46;97905.25;10509634;28;20054;-81
2022/04/14 10:23:44;;;;;;;10.60;7.20;;;;;;;53.52;1.76;97911.78;10495868;28;20047;-84
2022/04/14 10:29:16;;;;;;;7.25;6.55;;;;;;;53.59;2.01;97906.56;10505918;28;20046;-82
2022/04/14 10:34:42;;;;;;;10.15;6.25;;;;;;;54.08;1.97;97901.34;10504194;28;20048;-82
2022/04/14 10:40:12;;;;;;;8.70;6.22;;;;;;;54.61;1.93;97901.50;10431732;28;20051;-84
2022/04/14 10:45:53;;;;;;;6.75;6.03;;;;;;;55.34;1.04;97905.97;10461144;28;20049;-81
2022/04/14 10:51:29;;;;;;;8.55;6.25;;;;;;;53.97;1.83;97904.72;10436289;28;20463;-83
2022/04/14 10:56:58;;;;;;;6.47;5.80;;;;;;;54.37;1.68;97904.88;10432892;28;20730;-81
2022/04/14 11:02:22;;;;;;;13.27;7.03;;;;;;;51.82;2.56;97891.88;10420596;28;20045;-82
2022/04/14 11:08:14;;;;;;;9.30;6.68;;;;;;;46.10;4.58;97900.28;10419781;28;20568;-82
2022/04/14 11:13:52;;;;;;;10.10;6.68;;;;;;;41.70;6.54;97897.00;10435261;28;20103;-83
2022/04/14 11:19:26;;;;;;;12.10;7.70;;;;;;;38.76;8.52;97897.53;10459851;28;20569;-82
2022/04/14 11:24:47;;;;;;;11.35;8.00;;;;;;;37.63;9.06;97886.75;10445651;28;20071;-82
2022/04/14 11:30:40;;;;;;;14.70;9.00;;;;;;;36.33;10.40;97894.31;10431925;28;20095;-83
2022/04/14 11:36:13;;;;;;;11.98;9.05;;;;;;;35.27;11.05;97900.44;10459136;28;20041;-82
2022/04/14 11:41:53;;;;;;;11.10;8.88;;;;;;;34.86;11.42;97906.66;10447316;28;20048;-82
2022/04/14 11:47:14;;;;;;;12.77;7.72;;;;;;;34.15;11.76;97906.97;10444951;28;20072;-82
2022/04/14 11:52:41;;;;;;;15.32;9.32;;;;;;;33.52;12.68;97899.72;10443869;28;20495;-82
2022/04/14 11:58:08;;;;;;;14.85;9.98;;;;;;;33.26;13.25;97898.06;10431320;28;20056;-82
2022/04/14 12:03:31;;;;;;;12.88;9.60;;;;;;;32.56;13.46;97892.16;10443909;28;20052;-80
2022/04/14 12:08:53;;;;;;;14.13;9.93;;;;;;;31.80;13.87;97886.16;10457794;28;20402;-79
2022/04/14 12:14:17;;;;;;;16.15;10.43;;;;;;;31.78;14.75;97900.63;10430991;28;20068;-82
2022/04/14 12:19:53;;;;;;;16.00;10.00;;;;;;;32.04;15.07;97882.19;10429735;28;20053;-82
2022/04/14 12:25:15;;;;;;;16.92;10.63;;;;;;;31.86;14.73;97878.13;10430153;28;20052;-82
2022/04/14 12:30:41;;;;;;;18.20;11.38;;;;;;;31.04;15.37;97875.56;10443517;28;20476;-81
2022/04/14 12:36:07;;;;;;;16.40;10.80;;;;;;;30.80;15.83;97873.00;10431099;28;20454;-80
2022/04/14 12:41:32;;;;;;;14.38;9.80;;;;;;;30.61;16.25;97871.72;10498504;28;20111;-82
2022/04/14 12:46:53;;;;;;;13.25;9.05;;;;;;;30.65;16.39;97865.94;10511654;28;20393;-78
2022/04/14 12:52:17;;;;;;;15.00;9.57;;;;;;;30.71;16.27;97872.34;10512046;28;20052;-78
2022/04/14 12:57:38;;;;;;;15.20;8.30;;;;;;;30.42;16.16;97886.28;10497941;28;20100;-78
2022/04/14 13:03:05;;;;;;;13.30;8.10;;;;;;;30.10;17.04;97887.28;10497916;28;20044;-78
2022/04/14 13:08:33;;;;;;;19.33;10.63;;;;;;;29.54;16.89;97882.63;10512151;28;20122;-78
2022/04/14 13:13:54;;;;;;;14.73;8.85;;;;;;;29.34;17.41;97875.50;10512342;28;20047;-78
2022/04/14 13:19:15;;;;;;;15.70;8.63;;;;;;;29.04;17.37;97875.63;10510989;28;20089;-78
2022/04/14 13:24:37;;;;;;;18.35;10.32;;;;;;;28.59;17.94;97872.84;10511172;28;20046;-79
2022/04/14 13:30:01;;;;;;;18.37;10.40;;;;;;;27.56;18.23;97868.47;10510852;28;20097;-79
2022/04/14 13:35:22;;;;;;;16.23;9.18;;;;;;;27.23;18.88;97876.28;10510946;28;20051;-78
2022/04/14 13:40:43;;;;;;;15.27;8.85;;;;;;;27.20;19.42;97869.09;10510379;28;20052;-79
2022/04/14 13:46:05;;;;;;;16.90;9.20;;;;;;;27.19;19.33;97881.25;10510631;28;20363;-78
2022/04/14 13:51:26;;;;;;;15.50;9.23;;;;;;;27.53;18.99;97869.91;10524433;28;20048;-78
2022/04/14 13:56:48;;;;;;;17.08;9.02;;;;;;;27.69;19.08;97874.25;10510337;28;20036;-78
2022/04/14 14:02:09;;;;;;;19.77;10.80;;;;;;;27.70;18.83;97873.56;10531315;28;20044;-80
2022/04/14 14:07:31;;;;;;;18.60;10.38;;;;;;;27.98;19.01;97870.00;10519393;28;20274;-80
2022/04/14 14:12:54;;;;;;;19.17;10.45;;;;;;;28.43;18.93;97875.75;10504303;28;20043;-80
2022/04/14 14:18:15;;;;;;;;;;;;;;;28.75;18.66;97875.69;10514650;28;20053;-82
2022/04/14 14:23:35;;;;;;;21.38;10.65;;;;;;;28.78;18.34;97862.75;10536280;28;19920;-80
2022/04/14 14:28:56;;;;;;;21.77;11.23;;;;;;;28.36;18.34;97865.69;10537015;28;20050;-80
2022/04/14 14:34:17;;;;;;;18.67;11.60;;;;;;;27.69;18.97;97865.66;10587805;28;20047;-81
2022/04/14 14:39:37;;;;;;;21.27;11.77;;;;;;;27.58;18.74;97871.34;10545055;28;20054;-81
2022/04/14 14:44:58;;;;;;;26.92;12.18;;;;;;;27.52;18.92;97874.22;10559248;28;20092;-81
2022/04/14 14:50:19;;;;;;;18.95;11.05;;;;;;;27.37;19.53;97884.91;10558621;28;20043;-81
2022/04/14 14:55:40;;;;;;;23.38;11.77;;;;;;;27.43;19.90;97895.69;10587164;28;20096;-80
2022/04/14 15:01:01;;;;;;;21.35;10.18;;;;;;;27.53;19.80;97881.38;10544395;28;20039;-81
2022/04/14 15:06:23;;;;;;;19.88;10.80;;;;;;;27.50;19.80;97894.25;10544328;28;20040;-80
2022/04/14 15:11:47;;;;;;;20.85;11.00;;;;;;;27.38;20.08;97892.06;10557982;28;20473;-80
2022/04/14 15:17:08;;;;;;;18.55;10.55;;;;;;;26.88;20.46;97894.69;10544803;28;20035;-80
2022/04/14 15:22:29;;;;;;;16.88;9.90;;;;;;;26.73;20.97;97899.63;10543705;28;20036;-81
2022/04/14 15:27:49;;;;;;;20.67;11.20;;;;;;;26.52;20.94;97898.78;10557103;28;20047;-82
2022/04/14 15:33:10;;;;;;;19.60;10.95;;;;;;;26.20;21.11;97910.69;10557106;28;20039;-80
2022/04/14 15:38:31;;;;;;;20.33;12.13;;;;;;;25.81;22.15;97910.31;10571084;28;20047;-81
2022/04/14 15:43:52;;;;;;;23.92;14.25;;;;;;;25.56;22.50;97905.75;10556778;28;20035;-81
2022/04/14 15:49:13;;;;;;;20.35;12.48;;;;;;;25.37;23.02;97919.81;10556583;28;20477;-81
2022/04/14 15:54:55;;;;;;;27.02;13.05;;;;;;;25.08;23.60;97906.59;10558553;28;20044;-82
2022/04/14 16:00:16;;;;;;;27.07;13.13;;;;;;;24.93;24.49;97925.66;10570168;28;20047;-79
2022/04/14 16:05:37;;;;;;;23.55;11.93;;;;;;;24.69;24.92;97928.88;10569519;28;20514;-81
2022/04/14 16:16:36;;;;;;;28.42;16.27;;;;;;;24.26;26.08;97941.75;10546337;28;20040;-79
2022/04/14 16:21:58;;;;;;;18.30;12.63;;;;;;;24.05;26.51;97942.81;10539755;28;20046;-79
2022/04/14 16:27:19;;;;;;;20.17;13.15;;;;;;;23.85;26.95;97937.47;10569135;28;20113;-83
2022/04/14 16:32:40;;;;;;;21.42;11.95;;;;;;;23.76;27.08;97941.59;10554596;28;20047;-78
2022/04/14 16:38:01;;;;;;;17.48;10.93;;;;;;;23.62;26.90;97948.44;10554564;28;20082;-83
2022/04/14 16:43:21;;;;;;;19.90;12.98;;;;;;;23.57;27.48;97944.06;10569022;28;20044;-80
2022/04/14 16:48:42;;;;;;;40.78;25.92;;;;;;;23.55;27.44;97946.16;10554248;28;20401;-80
2022/04/14 16:54:08;;;;;;;28.70;16.45;;;;;;;23.38;27.71;97945.09;10540751;28;20477;-82
2022/04/14 16:59:29;;;;;;;21.35;10.85;;;;;;;23.17;27.85;97957.47;10553334;28;20048;-78
2022/04/14 17:04:50;;;;;;;17.95;11.02;;;;;;;23.02;27.97;97951.47;10553364;28;20477;-78
2022/04/14 17:10:10;;;;;;;18.00;10.02;;;;;;;22.77;28.43;97949.44;10539321;28;20090;-82
2022/04/14 17:15:32;;;;;;;14.98;9.55;;;;;;;22.57;28.64;97963.91;10553314;28;20504;-80
2022/04/14 17:20:54;;;;;;;16.55;8.60;;;;;;;22.33;29.16;97964.06;10581527;28;20050;-81
2022/04/14 17:26:17;;;;;;;18.67;8.57;;;;;;;22.12;29.21;97964.97;10567359;28;20061;-84
2022/04/14 17:31:38;;;;;;;15.82;8.45;;;;;;;21.89;29.65;97974.97;10566779;28;20047;-84
2022/04/14 17:36:59;;;;;;;13.50;8.30;;;;;;;21.76;29.72;97976.06;10552191;28;20048;-83
2022/04/14 17:42:20;;;;;;;13.35;7.95;;;;;;;21.59;29.97;97983.41;10524427;28;20092;-80
2022/04/14 17:47:41;;;;;;;13.18;7.53;;;;;;;21.49;30.40;97988.78;10566605;28;20059;-84
2022/04/14 17:53:02;;;;;;;17.48;8.77;;;;;;;21.41;30.63;97994.97;10552501;28;20044;-84
2022/04/14 17:58:24;;;;;;;11.95;8.05;;;;;;;21.29;30.72;97998.16;10566913;28;20100;-85
2022/04/14 18:03:45;;;;;;;17.00;8.40;;;;;;;21.16;31.20;98002.03;10551984;28;20047;-83
2022/04/14 18:09:06;;;;;;;17.27;8.93;;;;;;;20.93;31.44;97997.03;10538235;28;20051;-83
2022/04/14 18:14:27;;;;;;;15.38;8.80;;;;;;;20.85;31.74;98006.78;10551658;28;20201;-81
2022/04/14 18:19:49;;;;;;;17.52;8.60;;;;;;;20.64;31.70;98018.13;10566308;28;20397;-80
2022/04/14 18:25:11;;;;;;;13.82;9.05;;;;;;;20.52;32.32;98026.97;10537802;28;20046;-81
2022/04/14 18:30:31;;;;;;;14.43;8.13;;;;;;;20.38;32.66;98029.31;10552127;28;20053;-83
2022/04/14 18:35:52;;;;;;;23.88;8.63;;;;;;;20.22;32.81;98035.88;10551433;28;20045;-82
2022/04/14 18:41:13;;;;;;;70.35;57.92;;;;;;;20.09;33.40;98034.00;10551351;28;20051;-83
2022/04/14 18:46:36;;;;;;;10.02;5.93;;;;;;;19.96;33.92;98041.34;10556137;28;20085;-82
2022/04/14 18:51:57;;;;;;;8.80;5.55;;;;;;;19.69;34.44;98045.34;10544697;28;20504;-82
2022/04/14 18:57:19;;;;;;;7.43;4.57;;;;;;;19.57;35.67;98059.03;10544657;28;20439;-82
2022/04/14 19:02:41;;;;;;;8.73;3.60;;;;;;;19.49;35.63;98055.16;10586560;27;20048;-81
2022/04/14 19:08:03;;;;;;;10.52;3.90;;;;;;;19.34;35.89;98065.94;10572011;28;20173;-81
2022/04/14 19:13:27;;;;;;;7.95;4.32;;;;;;;19.27;36.53;98063.53;10572114;28;20036;-82
2022/04/14 19:18:47;;;;;;;6.80;3.67;;;;;;;19.17;36.97;98067.41;10557895;28;20424;-82
2022/04/14 19:24:09;;;;;;;5.85;3.33;;;;;;;18.99;37.33;98069.53;10543550;28;20039;-83
2022/04/14 19:29:30;;;;;;;9.55;3.30;;;;;;;18.91;37.72;98071.31;10512526;28;20416;-81
2022/04/14 19:34:52;;;;;;;6.60;2.92;;;;;;;18.87;37.97;98072.59;10560373;27;20113;-84
2022/04/14 19:40:13;;;;;;;5.78;3.35;;;;;;;18.81;38.50;98080.09;10570878;28;20051;-84
2022/04/14 19:45:36;;;;;;;6.18;3.30;;;;;;;18.69;38.83;98080.34;10571193;28;20051;-82
2022/04/14 19:50:59;;;;;;;10.88;3.80;;;;;;;18.53;39.77;98077.56;10574562;27;20525;-85
2022/04/14 19:56:26;;;;;;;;;;;;;;;18.43;41.18;98091.28;10556993;28;20097;-81
2022/04/14 20:01:48;;;;;;;5.85;2.55;;;;;;;18.43;40.48;98085.63;10573330;27;19964;-84
2022/04/14 20:07:10;;;;;;;5.70;2.80;;;;;;;18.35;40.70;98102.22;10556191;28;20047;-82
2022/04/14 20:12:31;;;;;;;5.28;2.60;;;;;;;18.24;40.96;98103.16;10544846;28;20040;-83
2022/04/14 20:17:53;;;;;;;4.97;2.13;;;;;;;18.10;41.53;98111.00;10483262;28;20490;-82
2022/04/14 20:23:17;;;;;;;7.07;2.03;;;;;;;18.01;42.25;98115.56;10499963;28;20040;-79
2022/04/14 20:28:38;;;;;;;5.75;2.08;;;;;;;17.96;42.93;98114.69;10485287;28;20051;-79
2022/04/14 20:33:59;;;;;;;6.43;2.70;;;;;;;17.97;42.77;98123.88;10485300;28;20048;-86
2022/04/14 20:39:20;;;;;;;6.47;2.20;;;;;;;17.95;43.14;98130.16;10498759;28;20056;-86
2022/04/14 20:44:41;;;;;;;5.50;2.35;;;;;;;17.97;43.23;98126.69;10512862;28;20466;-85
2022/04/14 20:50:01;;;;;;;6.30;2.72;;;;;;;17.99;43.65;98136.00;10512322;28;20058;-86
2022/04/14 20:55:23;;;;;;;4.25;2.20;;;;;;;17.92;44.07;98142.72;10517233;28;20036;-87
2022/04/14 21:00:44;;;;;;;4.78;2.05;;;;;;;17.79;44.54;98140.72;10530994;28;20043;-88
2022/04/14 21:06:06;;;;;;;5.43;1.88;;;;;;;17.67;44.44;98143.69;10540040;28;20048;-82
2022/04/14 21:11:29;;;;;;;3.97;1.55;;;;;;;17.68;44.92;98139.50;10516661;28;20080;-85
2022/04/14 21:16:51;;;;;;;4.30;1.45;;;;;;;17.68;44.90;98144.44;10544731;28;20108;-87
2022/04/14 21:22:12;;;;;;;2.67;1.25;;;;;;;17.62;44.96;98150.50;10557576;27;20401;-86
2022/04/14 21:27:33;;;;;;;4.50;1.52;;;;;;;17.57;45.07;98148.88;10530652;28;20122;-86
2022/04/14 21:32:53;;;;;;;2.85;1.23;;;;;;;17.51;45.28;98145.03;10499446;28;20052;-84
2022/04/14 21:38:14;;;;;;;3.10;1.48;;;;;;;17.41;45.66;98148.84;10497336;28;20056;-86
2022/04/14 21:43:55;;;;;;;4.97;1.60;;;;;;;17.43;45.71;98154.56;10509386;28;20101;-86
2022/04/14 21:49:16;;;;;;;3.35;1.58;;;;;;;17.44;45.75;98170.13;10506960;28;20043;-85
2022/04/14 21:54:37;;;;;;;3.90;1.58;;;;;;;17.40;46.37;98181.25;10515997;28;20039;-83
2022/04/14 21:59:57;;;;;;;3.50;1.38;;;;;;;17.36;46.60;98186.69;10515106;28;20542;-85
2022/04/14 22:05:18;;;;;;;3.83;1.02;;;;;;;17.25;47.09;98175.53;10529040;28;20371;-85
2022/04/14 22:10:39;;;;;;;4.97;1.08;;;;;;;17.10;47.31;98191.78;10529116;28;20048;-85
2022/04/14 22:16:00;;;;;;;3.72;1.15;;;;;;;16.90;48.38;98195.72;10496070;28;20052;-87
2022/04/14 22:21:20;;;;;;;6.45;1.95;;;;;;;16.85;48.79;98192.66;10513895;28;20442;-86
2022/04/14 22:26:41;;;;;;;4.10;1.60;;;;;;;16.79;49.53;98197.25;10518164;28;20036;-87
2022/04/14 22:32:02;;;;;;;5.25;2.03;;;;;;;16.66;50.87;98198.00;10517687;28;20040;-86
2022/04/14 22:37:23;;;;;;;5.63;1.50;;;;;;;16.53;50.78;98205.09;10531336;28;20402;-86
2022/04/14 22:42:46;;;;;;;6.18;2.00;;;;;;;16.44;51.79;98203.22;10517506;28;20055;-86
2022/04/14 22:48:07;;;;;;;7.53;2.03;;;;;;;16.34;52.47;98191.41;10531590;28;20044;-84
2022/04/14 22:53:28;;;;;;;5.68;2.50;;;;;;;16.23;52.85;98176.81;10531066;28;20051;-87
2022/04/14 22:58:48;;;;;;;4.90;2.10;;;;;;;16.19;53.48;98187.84;10516683;28;20044;-86
2022/04/14 23:04:09;;;;;;;4.90;1.95;;;;;;;16.18;54.07;98169.50;10535874;28;20069;-84
2022/04/14 23:09:29;;;;;;;4.97;2.60;;;;;;;16.12;53.91;98188.91;10564785;28;20044;-86
2022/04/14 23:14:55;;;;;;;4.90;2.05;;;;;;;16.07;54.50;98181.59;10535173;28;20043;-86
2022/04/14 23:20:18;;;;;;;3.22;1.60;;;;;;;16.00;54.78;98191.78;10532432;28;20101;-85
2022/04/14 23:25:39;;;;;;;4.53;2.00;;;;;;;15.90;55.67;98184.88;10532660;28;20071;-82
2022/04/14 23:31:00;;;;;;;5.00;1.90;;;;;;;15.74;55.89;98199.56;10556855;28;20443;-85
2022/04/14 23:36:29;;;;;;;4.55;1.83;;;;;;;15.61;56.27;98194.59;10571242;28;20039;-85
2022/04/14 23:41:51;;;;;;;5.35;2.00;;;;;;;15.61;56.68;98194.59;10573463;27;20389;-87
2022/04/14 23:47:12;;;;;;;4.32;2.17;;;;;;;15.56;57.50;98198.53;10556941;28;20478;-85
2022/04/14 23:52:33;;;;;;;3.67;1.95;;;;;;;15.55;57.60;98201.97;10570562;28;20039;-85
2022/04/14 23:57:54;;;;;;;5.50;2.30;;;;;;;15.54;57.93;98201.25;10556889;28;20047;-85
